Rechercher aéroport 
image banner adimage banner adimage banner ad
image banner ad

KMYV - Yuba County

Situé à Marysville, United States

ICAO - MYV, IATA - MYV

Données fournies par Airmate  

Information générale

Coordonnées: N39°5'52" W121°34'11"
Élévation : 64 feet MSL.
Variation magnétique : 16° East
Voir autres Aéroports à California

Données opérationnelles

Special qualification required
Heure actuelle UTC:
Heure actuelle locale:
Météo
METAR: KMYV 262153Z AUTO 17010KT 10SM CLR 28/09 A2983 RMK AO2 SLP103 T02830094
Voir NOTAMs / SUP AIP / TFR affectant cet aéroport [VIEW]
Fréquences de communication: [VIEW]

Pistes:

Identifiant RWYQFULongueur (ft)Largeur (ft)SurfaceLDA (ft)
0567°331460ASPH
23247°331460ASPH
14157°6007150ASPH
32337°6007150ASPH

Coordonnées de l'aéroport

Adresse: Marysville United States

Vue satellite de KMYV